Time;durP1;ratioP1;P1;durP2;ratioP2;P2;SDS_P1;SDS_P2;PMS_P1;PMS_P2;Temp;Humidity;BMP_temperature;BMP_pressure;BME280_temperature;BME280_humidity;BME280_pressure;Samples;Min_cycle;Max_cycle;Signal;HPM_P1;HPM_P2
2022/12/22 03:48:22;;;;;;;1.88;0.60;;;9.10;90.50;;;;;;4937270;23;86459;-70
2022/12/22 03:50:48;;;;;;;1.77;0.50;;;9.10;90.80;;;;;;4901759;28;87945;-70
2022/12/22 03:53:14;;;;;;;1.60;0.40;;;9.00;90.90;;;;;;4907252;28;86926;-70
2022/12/22 03:55:39;;;;;;;2.10;0.43;;;9.00;90.80;;;;;;4909819;28;86841;-71
2022/12/22 03:58:05;;;;;;;1.35;0.20;;;9.10;90.30;;;;;;4900461;28;86902;-71
2022/12/22 04:00:30;;;;;;;1.70;0.20;;;9.30;89.50;;;;;;4909437;28;88239;-71
2022/12/22 04:02:59;;;;;;;0.93;0.10;;;9.50;88.50;;;;;;4915737;28;86987;-71
2022/12/22 04:05:25;;;;;;;2.55;0.28;;;9.60;87.00;;;;;;4915326;28;86598;-70
2022/12/22 04:07:51;;;;;;;1.10;0.10;;;9.80;86.60;;;;;;4900652;28;86659;-71
2022/12/22 04:13:01;;;;;;;1.35;0.20;;;10.00;87.30;;;;;;4899212;28;88343;-71
2022/12/22 04:15:29;;;;;;;1.95;0.10;;;10.10;87.40;;;;;;4910141;28;86256;-71
2022/12/22 04:17:55;;;;;;;1.13;0.10;;;10.10;87.30;;;;;;4900341;28;86332;-71
2022/12/22 04:20:27;;;;;;;2.92;0.22;;;10.00;89.30;;;;;;4899294;28;88508;-70
2022/12/22 04:22:54;;;;;;;1.13;0.20;;;9.90;90.00;;;;;;4905306;28;86847;-69
2022/12/22 04:25:21;;;;;;;0.88;0.10;;;9.90;89.50;;;;;;4898434;28;87663;-70
2022/12/22 04:27:47;;;;;;;1.10;0.20;;;9.90;87.80;;;;;;4900891;28;86719;-70
2022/12/22 04:30:13;;;;;;;1.20;0.20;;;9.90;87.00;;;;;;4900071;28;87285;-71
2022/12/22 04:32:39;;;;;;;1.45;0.20;;;9.90;86.70;;;;;;4900883;28;86294;-70
2022/12/22 04:35:05;;;;;;;2.83;0.20;;;9.80;86.60;;;;;;4907526;28;87884;-70
2022/12/22 04:37:31;;;;;;;1.90;0.50;;;9.80;86.50;;;;;;4899658;28;86974;-70
2022/12/22 04:39:57;;;;;;;0.80;0.10;;;9.80;86.30;;;;;;4904814;28;87473;-70
2022/12/22 04:42:23;;;;;;;1.02;0.15;;;9.90;86.30;;;;;;4904794;28;86177;-70
2022/12/22 04:44:49;;;;;;;1.15;0.10;;;10.00;85.00;;;;;;4908420;28;86942;-70
2022/12/22 04:47:15;;;;;;;2.08;0.57;;;10.00;85.30;;;;;;4913096;28;87548;-70
2022/12/22 04:49:40;;;;;;;4.18;0.82;;;9.90;85.70;;;;;;4913254;28;88143;-71
2022/12/22 04:52:06;;;;;;;3.47;0.73;;;9.50;86.70;;;;;;4912822;28;87142;-70
2022/12/22 04:54:32;;;;;;;2.28;0.75;;;9.20;88.30;;;;;;4907880;28;86945;-70
2022/12/22 04:56:58;;;;;;;4.38;0.88;;;9.00;89.40;;;;;;4918425;28;86694;-70
2022/12/22 04:59:23;;;;;;;4.63;0.80;;;8.80;90.10;;;;;;4912582;28;87133;-70
2022/12/22 05:01:49;;;;;;;5.38;0.80;;;8.70;90.40;;;;;;4900650;28;87404;-70
2022/12/22 05:04:15;;;;;;;3.35;0.65;;;8.60;90.60;;;;;;4897512;28;86893;-70
2022/12/22 05:06:40;;;;;;;2.13;0.50;;;8.50;90.60;;;;;;4898459;28;85571;-70
2022/12/22 05:09:06;;;;;;;3.97;0.50;;;8.50;90.60;;;;;;4901884;28;87123;-70
2022/12/22 05:11:32;;;;;;;2.58;0.75;;;8.50;90.60;;;;;;4896858;28;87327;-70
2022/12/22 05:13:57;;;;;;;2.53;0.50;;;8.50;90.70;;;;;;4896364;28;87770;-69
2022/12/22 05:16:23;;;;;;;3.22;0.50;;;8.50;90.90;;;;;;4897989;28;86890;-70
2022/12/22 05:18:49;;;;;;;2.38;0.60;;;8.50;90.80;;;;;;4897710;28;86712;-69
2022/12/22 05:21:17;;;;;;;2.28;0.65;;;8.50;91.00;;;;;;4903949;28;86803;-70
2022/12/22 05:23:43;;;;;;;4.57;0.95;;;8.50;90.70;;;;;;4894076;28;87588;-70
2022/12/22 05:26:10;;;;;;;4.70;0.90;;;8.50;90.90;;;;;;4898526;28;86416;-70
2022/12/22 05:28:36;;;;;;;5.40;1.10;;;8.40;91.10;;;;;;4897260;28;87252;-70
2022/12/22 05:31:10;;;;;;;6.25;1.35;;;8.40;91.10;;;;;;4905539;28;86319;-69
2022/12/22 05:33:36;;;;;;;5.63;0.93;;;8.30;91.10;;;;;;4903200;28;87035;-70
2022/12/22 05:36:02;;;;;;;4.30;0.82;;;8.30;91.30;;;;;;4900433;28;86844;-70
2022/12/22 05:38:28;;;;;;;2.72;0.60;;;8.10;91.50;;;;;;4897134;28;89923;-70
2022/12/22 05:40:54;;;;;;;2.50;0.57;;;8.10;91.60;;;;;;4898369;28;87319;-69
2022/12/22 05:43:19;;;;;;;5.68;0.82;;;8.10;91.60;;;;;;4901724;28;86791;-69
2022/12/22 05:45:46;;;;;;;5.50;0.70;;;8.10;91.70;;;;;;4900608;28;86448;-70
2022/12/22 05:48:12;;;;;;;2.80;0.40;;;8.00;91.70;;;;;;4897449;28;88672;-69
2022/12/22 05:50:38;;;;;;;4.15;0.70;;;8.10;91.70;;;;;;4895783;28;87838;-71
2022/12/22 05:53:05;;;;;;;5.03;0.50;;;8.10;91.70;;;;;;4896052;28;86254;-71
2022/12/22 05:55:31;;;;;;;1.83;0.35;;;8.10;91.50;;;;;;4901594;28;86340;-70
2022/12/22 05:58:00;;;;;;;1.48;0.30;;;8.20;91.20;;;;;;4896898;28;87171;-71
2022/12/22 06:00:27;;;;;;;1.10;0.10;;;8.30;91.00;;;;;;4899229;28;86265;-70
2022/12/22 06:02:52;;;;;;;1.52;0.20;;;8.40;90.60;;;;;;4886731;28;88281;-70
2022/12/22 06:05:18;;;;;;;1.30;0.20;;;8.50;90.10;;;;;;4886601;28;87016;-70
2022/12/22 06:07:44;;;;;;;4.30;0.25;;;8.70;89.50;;;;;;4897943;28;87264;-71
2022/12/22 06:10:10;;;;;;;1.27;0.20;;;8.80;88.80;;;;;;4888425;28;87196;-71
2022/12/22 06:12:36;;;;;;;1.13;0.13;;;8.90;88.00;;;;;;4900121;28;86970;-71
2022/12/22 06:15:02;;;;;;;1.58;0.20;;;9.00;86.70;;;;;;4899906;28;86965;-72
2022/12/22 06:17:28;;;;;;;1.70;0.40;;;9.10;86.20;;;;;;4904419;28;89256;-70
2022/12/22 06:19:53;;;;;;;1.60;0.30;;;9.10;86.60;;;;;;4896720;28;86202;-71
2022/12/22 06:22:19;;;;;;;1.75;0.40;;;9.00;87.20;;;;;;4899420;28;86857;-70
2022/12/22 06:24:45;;;;;;;1.80;0.20;;;8.90;87.50;;;;;;4901458;28;87041;-70
2022/12/22 06:27:11;;;;;;;1.25;0.20;;;8.90;87.90;;;;;;4900073;28;88378;-71
2022/12/22 06:29:36;;;;;;;1.10;0.20;;;9.00;87.10;;;;;;4899155;28;87119;-71
2022/12/22 06:32:02;;;;;;;1.00;0.20;;;9.20;86.20;;;;;;4898694;28;88016;-71
2022/12/22 06:34:28;;;;;;;1.23;0.20;;;9.40;85.70;;;;;;4901685;28;86839;-71
2022/12/22 06:36:54;;;;;;;0.68;0.10;;;9.60;85.00;;;;;;4896446;28;88254;-70
2022/12/22 06:39:20;;;;;;;0.80;0.13;;;9.70;84.60;;;;;;4898794;28;87352;-70
2022/12/22 06:44:30;;;;;;;0.57;0.10;;;9.70;83.40;;;;;;4894999;28;85545;-70
2022/12/22 06:46:56;;;;;;;0.90;0.10;;;9.70;83.40;;;;;;4905984;28;86697;-70
2022/12/22 06:49:22;;;;;;;0.88;0.10;;;9.90;83.40;;;;;;4902838;28;86884;-70
2022/12/22 06:51:48;;;;;;;0.60;0.10;;;10.00;83.10;;;;;;4896469;28;87682;-70
2022/12/22 06:54:14;;;;;;;2.42;0.20;;;10.00;83.60;;;;;;4896747;28;86656;-71
2022/12/22 06:56:39;;;;;;;1.20;0.20;;;10.00;83.90;;;;;;4889865;28;88016;-71
2022/12/22 06:59:05;;;;;;;1.17;0.20;;;10.00;84.30;;;;;;4900649;28;86570;-71
2022/12/22 07:01:31;;;;;;;1.75;0.20;;;9.90;83.80;;;;;;4893692;28;86825;-71
2022/12/22 07:03:56;;;;;;;1.95;0.30;;;9.80;83.30;;;;;;4897504;28;86845;-71
2022/12/22 07:06:22;;;;;;;2.15;0.50;;;9.70;82.40;;;;;;4896474;28;87128;-71
2022/12/22 07:08:48;;;;;;;2.03;0.20;;;9.60;82.60;;;;;;4895886;28;86889;-71
2022/12/22 07:11:15;;;;;;;3.15;0.20;;;9.60;81.90;;;;;;4905134;28;86826;-71
2022/12/22 07:13:40;;;;;;;2.55;0.20;;;9.50;81.80;;;;;;4898813;28;87061;-71
2022/12/22 07:16:07;;;;;;;1.25;0.15;;;9.50;82.00;;;;;;4902228;28;87754;-71
2022/12/22 07:18:39;;;;;;;0.90;0.17;;;9.50;82.10;;;;;;4899562;28;86944;-71
2022/12/22 07:21:11;;;;;;;1.60;0.22;;;9.60;81.00;;;;;;4899790;28;86595;-71
2022/12/22 07:23:37;;;;;;;0.80;0.20;;;9.60;80.70;;;;;;4900332;28;86782;-71
2022/12/22 07:26:04;;;;;;;0.85;0.10;;;9.60;80.60;;;;;;4900148;28;86906;-71
2022/12/22 07:28:33;;;;;;;0.93;0.10;;;9.80;80.30;;;;;;4899722;28;86876;-71
2022/12/22 07:30:58;;;;;;;1.23;0.10;;;9.90;79.80;;;;;;4900406;28;86906;-71
2022/12/22 07:33:24;;;;;;;0.75;0.10;;;10.10;80.00;;;;;;4900309;28;86477;-71
2022/12/22 07:36:01;;;;;;;0.70;0.10;;;10.30;79.10;;;;;;4901361;28;87901;-71
2022/12/22 07:38:26;;;;;;;2.65;0.17;;;10.40;78.50;;;;;;4901159;28;86951;-71
2022/12/22 07:40:57;;;;;;;1.65;0.32;;;10.50;77.70;;;;;;4899600;28;87694;-71
2022/12/22 07:43:23;;;;;;;0.95;0.20;;;10.60;77.50;;;;;;4900355;28;87230;-71
2022/12/22 07:45:49;;;;;;;2.70;0.10;;;10.60;77.40;;;;;;4899660;28;86738;-71
2022/12/22 07:51:03;;;;;;;2.15;0.13;;;10.60;77.00;;;;;;4900149;28;86575;-71
2022/12/22 07:53:28;;;;;;;2.92;0.55;;;10.50;78.30;;;;;;4899855;28;86924;-71
2022/12/22 07:55:54;;;;;;;2.22;0.52;;;10.40;78.30;;;;;;4896491;28;86598;-71
2022/12/22 07:58:20;;;;;;;2.88;0.30;;;10.30;78.80;;;;;;4900106;28;86769;-71
2022/12/22 08:00:46;;;;;;;1.13;0.13;;;10.20;79.20;;;;;;4899561;28;86738;-72
2022/12/22 08:03:11;;;;;;;2.70;0.30;;;10.10;79.50;;;;;;4899967;28;86994;-71
2022/12/22 08:05:37;;;;;;;2.00;0.40;;;10.00;80.10;;;;;;4899018;28;88307;-71
2022/12/22 08:08:03;;;;;;;1.20;0.30;;;10.00;80.50;;;;;;4899667;28;87647;-71
2022/12/22 08:10:29;;;;;;;2.25;0.20;;;10.00;80.50;;;;;;4899489;28;86720;-71
2022/12/22 08:12:55;;;;;;;1.55;0.20;;;10.10;80.30;;;;;;4899213;28;86272;-71
2022/12/22 08:15:21;;;;;;;1.40;0.25;;;10.20;80.30;;;;;;4898796;28;87008;-71
2022/12/22 08:17:46;;;;;;;2.20;0.20;;;10.40;79.80;;;;;;4899419;28;86492;-71
2022/12/22 08:20:12;;;;;;;1.42;0.20;;;10.50;79.40;;;;;;4899307;28;86874;-71
2022/12/22 08:22:38;;;;;;;1.30;0.20;;;10.60;79.10;;;;;;4900166;28;85487;-71
2022/12/22 08:25:04;;;;;;;2.17;0.20;;;10.60;79.40;;;;;;4899417;28;87276;-71
2022/12/22 08:27:38;;;;;;;3.10;0.20;;;10.60;79.30;;;;;;4897276;28;86886;-71
2022/12/22 08:30:06;;;;;;;1.42;0.25;;;10.70;79.50;;;;;;4898996;28;87323;-71
2022/12/22 08:32:32;;;;;;;3.03;0.20;;;10.70;78.90;;;;;;4900608;28;86952;-72
2022/12/22 08:34:58;;;;;;;1.58;0.30;;;10.80;79.40;;;;;;4899960;28;87185;-72
2022/12/22 08:37:27;;;;;;;2.22;0.68;;;10.90;77.90;;;;;;4894377;28;87009;-72
2022/12/22 08:40:00;;;;;;;1.75;0.30;;;10.80;78.20;;;;;;4898120;28;86963;-71
2022/12/22 08:42:26;;;;;;;3.63;0.45;;;10.70;78.40;;;;;;4894167;28;86332;-71
2022/12/22 08:44:52;;;;;;;1.92;0.30;;;10.70;77.90;;;;;;4893387;28;86643;-71
2022/12/22 08:47:19;;;;;;;3.15;0.43;;;10.50;78.00;;;;;;4896602;28;86114;-71
2022/12/22 08:49:45;;;;;;;1.27;0.35;;;10.60;78.40;;;;;;4896043;28;86672;-71
2022/12/22 08:52:11;;;;;;;1.92;0.30;;;10.60;76.70;;;;;;4898433;28;86247;-71
2022/12/22 08:54:36;;;;;;;4.32;0.40;;;10.60;76.20;;;;;;4897672;28;87666;-71
2022/12/22 08:57:02;;;;;;;2.63;0.47;;;10.50;77.00;;;;;;4894146;28;87856;-71
2022/12/22 08:59:28;;;;;;;2.08;0.22;;;10.30;77.90;;;;;;4892145;28;86648;-71
2022/12/22 09:01:54;;;;;;;2.35;0.30;;;10.30;78.60;;;;;;4892790;28;86444;-72
2022/12/22 09:04:21;;;;;;;1.33;0.15;;;10.30;78.10;;;;;;4892870;28;87257;-71
2022/12/22 09:06:47;;;;;;;1.38;0.20;;;10.60;77.70;;;;;;4894244;28;86930;-71
2022/12/22 09:09:15;;;;;;;0.90;0.10;;;11.00;75.90;;;;;;4897452;28;86314;-72
2022/12/22 09:11:40;;;;;;;1.88;0.32;;;11.60;77.00;;;;;;4891380;28;86755;-72
2022/12/22 09:14:08;;;;;;;1.45;0.35;;;12.00;74.30;;;;;;4893627;28;87818;-71
2022/12/22 09:16:34;;;;;;;2.22;0.40;;;12.30;73.10;;;;;;4893320;28;86876;-71
2022/12/22 09:19:00;;;;;;;1.55;0.30;;;12.40;71.70;;;;;;4892125;28;87310;-71
2022/12/22 09:21:26;;;;;;;1.55;0.20;;;12.40;73.00;;;;;;4893988;28;86905;-71
2022/12/22 09:23:54;;;;;;;1.63;0.30;;;12.30;71.00;;;;;;4889578;28;87148;-71
2022/12/22 09:26:21;;;;;;;1.02;0.20;;;12.20;71.10;;;;;;4892093;28;87162;-71
2022/12/22 09:28:47;;;;;;;1.10;0.22;;;12.00;71.60;;;;;;4894057;28;86822;-71
2022/12/22 09:31:13;;;;;;;0.73;0.13;;;12.00;73.10;;;;;;4887623;28;86789;-71
2022/12/22 09:33:39;;;;;;;1.15;0.20;;;12.00;72.40;;;;;;4897987;28;86740;-71
2022/12/22 09:36:10;;;;;;;2.28;0.10;;;12.00;72.20;;;;;;4898287;28;86577;-71
2022/12/22 09:38:38;;;;;;;1.52;0.10;;;12.10;72.90;;;;;;4894751;28;86498;-71
2022/12/22 09:41:16;;;;;;;2.45;0.28;;;12.30;73.00;;;;;;4893717;28;87153;-71
2022/12/22 09:43:42;;;;;;;4.00;0.15;;;12.40;74.30;;;;;;4893719;28;87866;-71
2022/12/22 09:46:27;;;;;;;2.80;0.40;;;12.60;72.30;;;;;;4894069;28;88157;-71
2022/12/22 09:48:54;;;;;;;4.32;0.20;;;12.70;71.20;;;;;;4893460;28;86996;-71
2022/12/22 09:51:21;;;;;;;5.40;0.20;;;12.90;71.10;;;;;;4897774;28;87067;-71
2022/12/22 09:53:57;;;;;;;5.25;0.13;;;13.00;71.50;;;;;;4898367;28;87790;-71
2022/12/22 09:56:25;;;;;;;1.70;0.22;;;13.20;69.60;;;;;;4897728;28;87205;-71
2022/12/22 09:58:51;;;;;;;4.80;0.20;;;13.40;69.00;;;;;;4898098;28;87101;-71
2022/12/22 10:01:44;;;;;;;2.08;0.20;;;13.40;68.70;;;;;;4898197;28;86323;-71
2022/12/22 10:04:34;;;;;;;3.88;0.20;;;13.50;69.10;;;;;;4897992;28;87218;-71
2022/12/22 10:07:23;;;;;;;3.45;0.25;;;13.60;69.30;;;;;;4893674;28;87132;-71
2022/12/22 10:09:48;;;;;;;4.18;0.20;;;13.70;68.70;;;;;;4896302;28;87225;-71
2022/12/22 10:12:17;;;;;;;2.25;0.77;;;13.80;68.10;;;;;;4892796;28;86950;-71
2022/12/22 10:14:47;;;;;;;5.53;0.20;;;13.70;68.10;;;;;;4894365;28;86699;-71
2022/12/22 10:17:31;;;;;;;4.05;0.35;;;13.70;66.90;;;;;;4891533;28;86952;-71
2022/12/22 10:20:18;;;;;;;5.70;0.28;;;13.70;70.10;;;;;;4898341;28;86570;-71
2022/12/22 10:23:06;;;;;;;5.75;0.30;;;13.70;68.20;;;;;;4888345;28;86622;-71
2022/12/22 10:25:33;;;;;;;7.10;0.20;;;13.90;68.50;;;;;;4888952;28;86597;-71
2022/12/22 10:28:21;;;;;;;2.50;0.20;;;14.20;66.70;;;;;;4898198;28;86469;-71
2022/12/22 10:30:47;;;;;;;4.97;0.30;;;14.30;65.50;;;;;;4897332;28;86289;-71
2022/12/22 10:33:15;;;;;;;3.10;0.25;;;14.50;65.80;;;;;;4901641;28;86665;-71
2022/12/22 10:35:45;;;;;;;2.17;0.30;;;14.60;65.20;;;;;;4896262;28;87931;-72
2022/12/22 10:38:23;;;;;;;2.30;0.10;;;14.80;64.90;;;;;;4898422;28;89474;-72
2022/12/22 10:40:56;;;;;;;4.63;0.30;;;15.00;67.80;;;;;;4889695;28;86802;-71
2022/12/22 10:43:47;;;;;;;3.10;0.40;;;15.00;64.50;;;;;;4895233;28;86928;-71
2022/12/22 10:46:13;;;;;;;4.07;0.40;;;14.90;65.90;;;;;;4887201;28;88173;-71
2022/12/22 10:48:39;;;;;;;4.22;0.30;;;15.00;64.80;;;;;;4896221;28;87033;-71
2022/12/22 10:51:07;;;;;;;4.57;0.30;;;14.90;64.80;;;;;;4898253;28;87289;-71
2022/12/22 10:53:47;;;;;;;3.30;0.22;;;14.90;63.90;;;;;;4896210;28;85966;-72
2022/12/22 10:56:22;;;;;;;2.80;0.25;;;15.00;67.30;;;;;;4895466;28;87152;-71
2022/12/22 10:58:53;;;;;;;5.63;0.50;;;15.10;64.90;;;;;;4888567;28;87034;-72
2022/12/22 11:01:28;;;;;;;3.95;0.25;;;15.20;63.90;;;;;;4899128;28;87679;-72
2022/12/22 11:03:54;;;;;;;3.55;0.28;;;15.40;65.60;;;;;;4900872;28;86982;-71
2022/12/22 11:06:19;;;;;;;3.05;0.10;;;15.50;62.60;;;;;;4897053;28;87164;-72
2022/12/22 11:08:46;;;;;;;3.72;0.22;;;15.30;62.30;;;;;;4898852;28;86348;-71
2022/12/22 11:11:39;;;;;;;3.65;0.30;;;15.30;62.10;;;;;;4900313;28;87129;-72
2022/12/22 11:14:44;;;;;;;4.20;0.20;;;15.20;62.90;;;;;;4892784;28;86984;-71
2022/12/22 11:17:34;;;;;;;3.88;0.20;;;15.00;62.60;;;;;;4857342;28;86926;-71
2022/12/22 11:20:35;;;;;;;2.72;0.20;;;15.00;63.90;;;;;;4892184;28;86648;-72
2022/12/22 11:23:04;;;;;;;2.42;0.30;;;14.90;63.50;;;;;;4898059;28;86625;-72
2022/12/22 11:25:55;;;;;;;3.05;0.20;;;14.90;63.10;;;;;;4895191;28;86350;-71
2022/12/22 11:28:42;;;;;;;3.60;0.25;;;14.80;62.50;;;;;;4891352;28;89136;-71
2022/12/22 11:31:16;;;;;;;3.95;0.10;;;14.90;62.90;;;;;;4891329;28;86988;-71
2022/12/22 11:34:00;;;;;;;4.43;0.38;;;14.90;63.00;;;;;;4888723;28;86959;-71
2022/12/22 11:37:00;;;;;;;4.28;1.33;;;15.00;63.40;;;;;;4891613;28;88657;-71
2022/12/22 11:39:43;;;;;;;2.33;0.10;;;15.00;61.90;;;;;;4871862;28;87969;-71
2022/12/22 11:42:18;;;;;;;5.82;0.52;;;15.10;62.50;;;;;;4894181;28;87039;-72
2022/12/22 11:45:18;;;;;;;10.65;3.15;;;15.10;62.80;;;;;;4894933;28;86613;-71
2022/12/22 11:48:13;;;;;;;3.83;0.30;;;15.10;61.60;;;;;;4891780;28;86207;-72
2022/12/22 11:50:44;;;;;;;5.63;0.30;;;15.10;62.50;;;;;;4882800;28;87385;-72
2022/12/22 11:53:51;;;;;;;3.25;0.40;;;15.10;62.50;;;;;;4892949;28;86982;-71
2022/12/22 11:56:28;;;;;;;5.47;0.38;;;15.20;60.70;;;;;;4863572;28;87992;-71
2022/12/22 11:59:38;;;;;;;2.50;0.30;;;15.30;61.20;;;;;;4897313;28;86427;-71
2022/12/22 12:02:42;;;;;;;4.50;0.30;;;15.30;62.20;;;;;;4887904;28;87235;-71
2022/12/22 12:05:42;;;;;;;3.28;0.10;;;15.40;60.90;;;;;;4889987;28;87216;-71
2022/12/22 12:08:18;;;;;;;3.20;0.30;;;15.50;61.40;;;;;;4890964;28;87228;-71
2022/12/22 12:10:48;;;;;;;2.00;0.30;;;15.70;61.10;;;;;;4890216;28;87016;-71
2022/12/22 12:13:33;;;;;;;1.58;0.20;;;15.90;60.00;;;;;;4891918;28;87681;-71
2022/12/22 12:16:23;;;;;;;2.42;0.40;;;16.00;59.10;;;;;;4891057;28;86914;-71
2022/12/22 12:19:20;;;;;;;3.55;0.38;;;16.00;58.80;;;;;;4890776;28;87061;-71
2022/12/22 12:21:59;;;;;;;3.28;0.40;;;15.90;58.70;;;;;;4889635;28;86362;-71
2022/12/22 12:24:30;;;;;;;3.75;0.45;;;16.10;60.00;;;;;;4888787;28;88132;-71
2022/12/22 12:27:09;;;;;;;2.03;0.30;;;16.10;58.60;;;;;;4893452;28;88376;-71
2022/12/22 12:30:13;;;;;;;2.67;0.35;;;16.10;58.20;;;;;;4897197;28;86927;-71
2022/12/22 12:32:49;;;;;;;3.42;0.38;;;16.10;57.30;;;;;;4875672;28;87038;-71
2022/12/22 12:35:45;;;;;;;5.47;0.35;;;16.00;57.70;;;;;;4893097;28;87117;-71
2022/12/22 12:38:30;;;;;;;7.57;0.60;;;16.00;58.10;;;;;;4895514;28;87110;-71
2022/12/22 12:41:25;;;;;;;3.65;0.20;;;15.80;58.30;;;;;;4883393;28;86526;-71
2022/12/22 12:43:53;;;;;;;5.18;0.30;;;15.90;58.90;;;;;;4846533;28;86649;-70
2022/12/22 12:46:52;;;;;;;2.22;0.30;;;15.80;60.10;;;;;;4893803;28;87455;-70
2022/12/22 12:49:32;;;;;;;3.22;0.40;;;15.70;60.20;;;;;;4887023;28;87029;-70
2022/12/22 12:52:06;;;;;;;2.78;0.20;;;15.60;61.10;;;;;;4880996;28;87643;-71
2022/12/22 12:54:31;;;;;;;4.57;0.30;;;15.60;60.80;;;;;;4891177;28;86734;-70
2022/12/22 12:57:00;;;;;;;1.67;0.17;;;15.70;61.20;;;;;;4881841;28;87142;-71
2022/12/22 12:59:40;;;;;;;3.78;0.30;;;15.70;62.20;;;;;;4891754;28;86244;-71
2022/12/22 13:02:35;;;;;;;3.40;0.25;;;15.60;62.90;;;;;;4889451;28;86798;-71
2022/12/22 13:05:10;;;;;;;3.88;0.40;;;15.50;63.80;;;;;;4893596;28;87087;-72
2022/12/22 13:08:09;;;;;;;3.63;0.30;;;15.40;63.50;;;;;;4894004;28;86838;-71
2022/12/22 13:10:38;;;;;;;2.55;0.20;;;15.30;64.10;;;;;;4895280;28;86176;-71
2022/12/22 13:13:05;;;;;;;3.25;0.20;;;15.20;65.20;;;;;;4895262;28;88187;-71
2022/12/22 13:15:40;;;;;;;4.43;0.70;;;15.30;64.70;;;;;;4896442;28;86602;-70
2022/12/22 13:18:28;;;;;;;4.82;1.35;;;15.40;63.80;;;;;;4895825;28;87572;-70
2022/12/22 13:21:21;;;;;;;2.50;0.50;;;15.50;63.40;;;;;;4897690;28;88388;-70
2022/12/22 13:23:50;;;;;;;3.47;0.30;;;15.50;62.40;;;;;;4893489;28;86455;-70
2022/12/22 13:26:20;;;;;;;3.08;0.80;;;15.60;63.00;;;;;;4898221;28;86445;-69
2022/12/22 13:28:57;;;;;;;2.17;0.30;;;15.70;64.20;;;;;;4897382;28;88260;-70
2022/12/22 13:31:35;;;;;;;5.60;0.20;;;15.70;62.00;;;;;;4894863;28;86788;-70
2022/12/22 13:34:47;;;;;;;5.97;0.20;;;15.70;61.30;;;;;;4899258;28;87150;-70
2022/12/22 13:37:17;;;;;;;2.35;0.20;;;15.80;62.30;;;;;;4896405;28;86517;-70
2022/12/22 13:40:04;;;;;;;3.78;0.22;;;15.70;60.20;;;;;;4892271;28;87601;-70
2022/12/22 13:42:33;;;;;;;2.65;0.10;;;15.60;61.60;;;;;;4895616;28;87144;-69
2022/12/22 13:45:00;;;;;;;2.70;0.22;;;15.70;62.30;;;;;;4897989;28;87623;-69
2022/12/22 13:47:26;;;;;;;4.72;0.20;;;15.80;61.00;;;;;;4894887;28;87145;-70
2022/12/22 13:49:52;;;;;;;2.58;0.30;;;15.70;62.20;;;;;;4896210;28;86969;-71
2022/12/22 13:52:20;;;;;;;2.03;0.20;;;15.70;61.60;;;;;;4895627;28;87363;-71
2022/12/22 13:54:46;;;;;;;2.97;0.20;;;15.80;62.80;;;;;;4896091;28;86619;-71
2022/12/22 13:57:20;;;;;;;2.72;0.20;;;15.70;62.60;;;;;;4894722;28;86830;-72
2022/12/22 13:59:49;;;;;;;2.35;0.22;;;15.80;63.40;;;;;;4896135;28;87214;-72
2022/12/22 14:02:18;;;;;;;2.67;0.20;;;15.70;62.80;;;;;;4875380;28;86427;-71
2022/12/22 14:05:03;;;;;;;3.95;0.30;;;15.60;62.60;;;;;;4895465;28;86235;-71
2022/12/22 14:07:29;;;;;;;2.17;0.10;;;15.60;63.30;;;;;;4892478;28;86651;-71
2022/12/22 14:09:56;;;;;;;2.17;0.20;;;15.40;63.10;;;;;;4894484;28;89288;-72
2022/12/22 14:12:25;;;;;;;2.38;0.20;;;15.40;63.10;;;;;;4891331;28;88157;-70
2022/12/22 14:14:53;;;;;;;1.95;0.28;;;15.30;63.30;;;;;;4894843;28;86513;-71
2022/12/22 14:17:35;;;;;;;2.65;0.20;;;15.10;64.10;;;;;;4895057;28;86969;-71
2022/12/22 14:20:36;;;;;;;4.07;0.68;;;14.90;64.20;;;;;;4894670;28;87250;-71
2022/12/22 14:23:15;;;;;;;3.20;0.30;;;14.90;63.80;;;;;;4875268;28;88482;-71
2022/12/22 14:25:43;;;;;;;2.92;0.22;;;14.90;64.30;;;;;;4882353;28;86948;-70
2022/12/22 14:28:36;;;;;;;2.60;0.40;;;14.80;64.40;;;;;;4896501;28;85604;-71
2022/12/22 14:31:04;;;;;;;1.08;0.03;;;14.80;64.50;;;;;;4885126;28;87218;-70
2022/12/22 14:33:32;;;;;;;1.58;0.10;;;14.70;63.20;;;;;;4893420;28;87015;-71
2022/12/22 14:36:16;;;;;;;1.08;0.20;;;14.70;64.30;;;;;;4900676;28;88092;-70
2022/12/22 14:38:48;;;;;;;2.67;0.20;;;14.60;63.40;;;;;;4897063;28;87289;-72
2022/12/22 14:41:40;;;;;;;2.83;0.20;;;14.60;64.20;;;;;;4898790;28;87139;-72
2022/12/22 14:44:32;;;;;;;2.05;0.20;;;14.40;64.30;;;;;;4890762;28;86986;-71
2022/12/22 14:47:05;;;;;;;5.05;0.20;;;14.30;64.40;;;;;;4891290;28;86833;-71
2022/12/22 14:49:31;;;;;;;2.28;0.30;;;14.20;64.90;;;;;;4892301;28;86992;-71
2022/12/22 14:52:06;;;;;;;2.70;0.20;;;14.20;63.90;;;;;;4897815;28;86402;-71
2022/12/22 14:54:31;;;;;;;2.95;0.20;;;14.10;64.00;;;;;;4896860;28;86842;-71
2022/12/22 14:57:10;;;;;;;2.63;0.43;;;14.00;64.50;;;;;;4898171;28;86573;-71
2022/12/22 14:59:35;;;;;;;2.40;0.13;;;14.00;63.70;;;;;;4896179;28;86226;-70
2022/12/22 15:02:19;;;;;;;3.90;0.10;;;14.00;64.10;;;;;;4897105;28;88094;-71
2022/12/22 15:04:44;;;;;;;2.90;0.38;;;14.00;64.20;;;;;;4894632;28;87191;-71
2022/12/22 15:07:19;;;;;;;2.10;0.20;;;14.00;63.90;;;;;;4898596;28;86305;-70
2022/12/22 15:09:45;;;;;;;3.60;0.20;;;14.00;64.00;;;;;;4898109;28;86757;-70
2022/12/22 15:12:17;;;;;;;1.58;0.20;;;14.00;64.00;;;;;;4898105;28;87209;-70
2022/12/22 15:14:46;;;;;;;2.40;0.15;;;14.00;63.80;;;;;;4898217;28;86807;-70
2022/12/22 15:17:24;;;;;;;2.55;0.40;;;13.90;64.60;;;;;;4897913;28;86316;-70
2022/12/22 15:19:53;;;;;;;2.03;0.30;;;13.80;64.10;;;;;;4897586;28;85903;-71
2022/12/22 15:22:19;;;;;;;4.43;0.20;;;13.80;64.50;;;;;;4900346;28;87902;-71
2022/12/22 15:24:45;;;;;;;2.97;0.45;;;13.70;65.40;;;;;;4898093;28;86810;-71
2022/12/22 15:27:11;;;;;;;3.42;0.20;;;13.70;65.80;;;;;;4897115;28;87959;-71
2022/12/22 15:29:37;;;;;;;4.07;0.20;;;13.60;66.10;;;;;;4895814;28;86987;-70
2022/12/22 15:32:03;;;;;;;3.72;0.25;;;13.50;66.30;;;;;;4895880;28;86475;-71
2022/12/22 15:34:31;;;;;;;3.38;0.20;;;13.50;66.80;;;;;;4898752;28;87000;-71
2022/12/22 15:36:57;;;;;;;2.28;0.28;;;13.40;67.20;;;;;;4899902;28;86344;-71
2022/12/22 15:39:23;;;;;;;4.00;0.43;;;13.30;67.30;;;;;;4895979;28;86460;-70
2022/12/22 15:41:49;;;;;;;4.68;0.32;;;13.20;67.90;;;;;;4899500;28;88101;-70
2022/12/22 15:44:15;;;;;;;7.25;0.40;;;13.10;68.10;;;;;;4899554;28;87364;-71
2022/12/22 15:46:43;;;;;;;5.18;0.55;;;13.10;68.50;;;;;;4896832;28;87167;-70
2022/12/22 15:49:16;;;;;;;6.70;0.70;;;13.10;68.60;;;;;;4898592;28;86348;-70
2022/12/22 15:51:44;;;;;;;6.60;0.90;;;13.00;69.00;;;;;;4897856;28;88034;-71
2022/12/22 15:54:13;;;;;;;8.63;1.00;;;13.00;69.50;;;;;;4899389;28;87169;-70
2022/12/22 15:56:40;;;;;;;6.30;1.83;;;12.90;70.00;;;;;;4898219;28;86506;-71
2022/12/22 15:59:11;;;;;;;5.60;0.75;;;12.80;70.10;;;;;;4896956;28;86679;-71
2022/12/22 16:01:37;;;;;;;6.28;1.27;;;12.80;70.20;;;;;;4896820;28;86748;-70
2022/12/22 16:04:03;;;;;;;10.82;2.13;;;12.60;71.10;;;;;;4897019;28;87221;-70
2022/12/22 16:06:29;;;;;;;12.02;2.50;;;12.50;71.20;;;;;;4896802;28;86877;-70
2022/12/22 16:08:55;;;;;;;18.33;4.68;;;12.50;71.80;;;;;;4897240;28;86044;-71
2022/12/22 16:11:21;;;;;;;9.23;2.90;;;12.40;72.10;;;;;;4897337;28;87256;-71
2022/12/22 16:13:49;;;;;;;10.57;2.50;;;12.40;72.00;;;;;;4897505;28;87105;-70
2022/12/22 16:16:15;;;;;;;7.85;1.73;;;12.30;72.40;;;;;;4888725;28;88515;-71
2022/12/22 16:18:40;;;;;;;9.70;3.13;;;12.30;72.70;;;;;;4888624;28;86882;-71
2022/12/22 16:21:17;;;;;;;10.18;3.47;;;12.20;73.00;;;;;;4893600;28;86712;-71
2022/12/22 16:23:45;;;;;;;11.43;3.13;;;12.10;73.60;;;;;;4896091;28;86545;-71
2022/12/22 16:26:17;;;;;;;14.95;3.72;;;12.10;73.60;;;;;;4895696;28;87853;-71
2022/12/22 16:28:43;;;;;;;10.15;2.85;;;12.10;74.30;;;;;;4865603;28;86704;-71
2022/12/22 16:31:17;;;;;;;15.35;4.38;;;12.00;74.20;;;;;;4885863;28;86692;-71
2022/12/22 16:33:43;;;;;;;11.18;4.15;;;11.90;74.50;;;;;;4896471;28;89757;-70
2022/12/22 16:36:08;;;;;;;19.10;4.20;;;11.90;74.70;;;;;;4886493;28;86906;-70
2022/12/22 16:38:34;;;;;;;11.90;4.10;;;11.90;74.90;;;;;;4897682;28;86764;-71
2022/12/22 16:41:02;;;;;;;13.57;3.38;;;11.80;75.20;;;;;;4896208;28;87983;-71
2022/12/22 16:43:30;;;;;;;11.43;3.33;;;11.80;75.20;;;;;;4897500;28;87614;-71
2022/12/22 16:45:56;;;;;;;15.60;4.15;;;11.70;75.10;;;;;;4891812;28;86661;-70
2022/12/22 16:48:40;;;;;;;16.48;4.85;;;11.80;75.00;;;;;;4893290;28;88673;-70
2022/12/22 16:51:06;;;;;;;22.27;5.63;;;11.70;75.30;;;;;;4891168;28;87140;-74
2022/12/22 16:53:32;;;;;;;140.63;59.22;;;11.70;75.30;;;;;;4889920;28;86955;-71
2022/12/22 16:56:00;;;;;;;36.78;15.70;;;11.60;75.60;;;;;;4888211;28;88775;-72
2022/12/22 16:58:26;;;;;;;20.13;7.28;;;11.60;76.10;;;;;;4894277;28;86446;-72
2022/12/22 17:00:52;;;;;;;24.02;10.38;;;11.50;76.30;;;;;;4897801;28;86860;-71
2022/12/22 17:03:24;;;;;;;15.93;5.72;;;11.30;76.70;;;;;;4895044;28;87618;-72
2022/12/22 17:05:57;;;;;;;11.20;3.83;;;11.30;77.10;;;;;;4898697;28;87555;-71